Time;durP1;ratioP1;P1;durP2;ratioP2;P2;SDS_P1;SDS_P2;PMS_P1;PMS_P2;Temp;Humidity;BMP_temperature;BMP_pressure;BME280_temperature;BME280_humidity;BME280_pressure;Samples;Min_cycle;Max_cycle;Signal;HPM_P1;HPM_P2
2023/02/02 00:01:16;;;;;;;26.73;6.20;;;;;;;;;;5007359;28;20293;-74
2023/02/02 00:03:41;;;;;;;25.30;5.30;;;;;;;;;;5007352;28;21119;-75
2023/02/02 00:06:06;;;;;;;23.17;5.23;;;;;;;;;;5013891;28;20731;-75
2023/02/02 00:08:32;;;;;;;29.43;4.77;;;;;;;;;;5009365;28;20712;-75
2023/02/02 00:10:58;;;;;;;19.00;4.07;;;;;;;;;;5004111;28;20631;-75
2023/02/02 00:13:23;;;;;;;22.77;4.70;;;;;;;;;;5017779;28;20471;-74
2023/02/02 00:15:48;;;;;;;21.13;4.80;;;;;;;;;;5016534;28;20524;-75
2023/02/02 00:18:14;;;;;;;19.03;5.83;;;;;;;;;;5019464;28;20681;-75
2023/02/02 00:20:39;;;;;;;20.17;4.93;;;;;;;;;;5016979;28;20653;-74
2023/02/02 00:23:04;;;;;;;33.73;6.33;;;;;;;;;;5015889;28;20269;-74
2023/02/02 00:25:30;;;;;;;19.80;4.63;;;;;;;;;;5017484;28;20233;-74
2023/02/02 00:27:55;;;;;;;29.93;4.47;;;;;;;;;;5016334;28;20246;-74
2023/02/02 00:30:21;;;;;;;35.70;4.50;;;;;;;;;;5016927;28;20201;-74
2023/02/02 00:32:47;;;;;;;18.30;3.90;;;;;;;;;;5017138;28;20666;-74
2023/02/02 00:35:13;;;;;;;23.30;4.50;;;;;;;;;;5018231;28;20184;-75
2023/02/02 00:37:38;;;;;;;27.07;3.80;;;;;;;;;;4993291;28;20411;-74
2023/02/02 00:40:03;;;;;;;17.43;4.77;;;;;;;;;;5017302;28;20188;-74
2023/02/02 00:42:29;;;;;;;23.13;4.17;;;;;;;;;;5009562;28;20180;-74
2023/02/02 00:47:38;;;;;;;22.33;4.30;;;;;;;;;;5014734;28;20728;-74
2023/02/02 00:50:03;;;;;;;20.83;4.50;;;;;;;;;;5014003;28;20467;-74
2023/02/02 00:52:29;;;;;;;32.03;3.77;;;;;;;;;;5016947;28;20180;-73
2023/02/02 00:54:57;;;;;;;27.97;5.27;;;;;;;;;;5018069;28;20817;-74
2023/02/02 00:57:22;;;;;;;20.07;4.17;;;;;;;;;;5014056;28;20277;-74
2023/02/02 00:59:47;;;;;;;24.77;5.30;;;;;;;;;;5016978;28;20506;-74
2023/02/02 01:02:13;;;;;;;25.83;5.00;;;;;;;;;;5017568;28;20661;-74
2023/02/02 01:04:38;;;;;;;24.20;4.73;;;;;;;;;;5017703;28;20197;-74
2023/02/02 01:07:03;;;;;;;21.73;4.80;;;;;;;;;;5015248;28;20700;-74
2023/02/02 01:09:29;;;;;;;26.17;5.03;;;;;;;;;;5018054;28;20532;-74
2023/02/02 01:11:56;;;;;;;21.90;4.57;;;;;;;;;;5016807;28;20184;-74
2023/02/02 01:14:22;;;;;;;26.23;5.03;;;;;;;;;;5017146;28;20201;-74
2023/02/02 01:16:47;;;;;;;25.80;4.70;;;;;;;;;;5015974;28;20913;-74
2023/02/02 01:19:13;;;;;;;20.00;4.93;;;;;;;;;;5010341;28;20213;-74
2023/02/02 01:21:38;;;;;;;18.40;4.03;;;;;;;;;;5007529;28;20196;-74
2023/02/02 01:24:04;;;;;;;22.43;4.63;;;;;;;;;;5015017;28;20454;-74
2023/02/02 01:26:29;;;;;;;23.87;5.00;;;;;;;;;;5013576;28;20560;-74
2023/02/02 01:28:54;;;;;;;26.33;4.63;;;;;;;;;;4985357;28;20184;-74
2023/02/02 01:31:20;;;;;;;18.73;5.13;;;;;;;;;;5013840;28;20569;-75
2023/02/02 01:33:46;;;;;;;32.53;5.37;;;;;;;;;;5015408;28;20201;-75
2023/02/02 01:36:12;;;;;;;17.10;4.47;;;;;;;;;;5016975;28;20653;-74
2023/02/02 01:38:39;;;;;;;24.53;4.77;;;;;;;;;;5015518;28;20185;-75
2023/02/02 01:41:04;;;;;;;19.77;4.63;;;;;;;;;;5016501;28;20439;-74
2023/02/02 01:43:30;;;;;;;20.50;3.97;;;;;;;;;;5015057;28;20827;-74
2023/02/02 01:45:56;;;;;;;21.50;4.47;;;;;;;;;;5011368;28;20271;-74
2023/02/02 01:48:25;;;;;;;22.47;4.83;;;;;;;;;;5015407;28;20185;-75
2023/02/02 01:50:52;;;;;;;30.13;5.40;;;;;;;;;;5016869;28;20501;-75
2023/02/02 01:53:18;;;;;;;25.47;4.80;;;;;;;;;;5014278;28;21002;-74
2023/02/02 01:55:44;;;;;;;20.47;4.47;;;;;;;;;;5014354;28;20519;-74
2023/02/02 01:58:15;;;;;;;22.67;4.63;;;;;;;;;;5016653;28;20420;-74
2023/02/02 02:00:41;;;;;;;28.27;5.00;;;;;;;;;;5014409;28;20435;-74
2023/02/02 02:03:10;;;;;;;30.33;4.87;;;;;;;;;;5013990;28;20450;-74
2023/02/02 02:05:39;;;;;;;20.60;4.87;;;;;;;;;;5013227;28;20489;-75
2023/02/02 02:08:10;;;;;;;23.23;4.17;;;;;;;;;;4995984;28;20426;-74
2023/02/02 02:10:36;;;;;;;23.17;4.70;;;;;;;;;;5011269;28;20504;-74
2023/02/02 02:13:02;;;;;;;25.90;4.60;;;;;;;;;;5006042;28;20449;-74
2023/02/02 02:18:21;;;;;;;20.13;4.23;;;;;;;;;;5012517;28;20519;-74
2023/02/02 02:27:07;;;;;;;26.73;5.07;;;;;;;;;;5002558;28;20432;-74
2023/02/02 02:29:50;;;;;;;23.87;4.43;;;;;;;;;;5004517;28;20500;-74
2023/02/02 02:32:16;;;;;;;24.87;4.50;;;;;;;;;;4999370;28;20424;-74
2023/02/02 02:34:50;;;;;;;22.40;4.90;;;;;;;;;;5014484;28;20967;-74
2023/02/02 02:37:22;;;;;;;25.33;5.20;;;;;;;;;;5003090;28;20259;-74
2023/02/02 02:39:50;;;;;;;24.67;4.83;;;;;;;;;;5008034;28;20511;-74
2023/02/02 02:42:17;;;;;;;27.63;5.03;;;;;;;;;;5005169;28;20428;-74
2023/02/02 02:44:42;;;;;;;29.83;4.63;;;;;;;;;;5004149;28;21003;-74
2023/02/02 02:47:08;;;;;;;23.33;4.33;;;;;;;;;;4999286;28;20431;-74
2023/02/02 02:49:40;;;;;;;21.60;4.23;;;;;;;;;;5001448;28;20204;-74
2023/02/02 02:52:06;;;;;;;25.03;4.50;;;;;;;;;;4982276;28;21021;-74
2023/02/02 02:54:34;;;;;;;24.13;4.67;;;;;;;;;;5005210;28;20526;-74
2023/02/02 02:57:18;;;;;;;20.77;5.00;;;;;;;;;;4988288;28;20932;-74
2023/02/02 02:59:48;;;;;;;19.90;4.70;;;;;;;;;;4975252;28;20982;-74
2023/02/02 03:02:33;;;;;;;25.53;4.30;;;;;;;;;;5002621;28;20459;-74
2023/02/02 03:05:17;;;;;;;18.23;4.40;;;;;;;;;;5009177;28;20442;-74
2023/02/02 03:07:55;;;;;;;24.53;4.93;;;;;;;;;;5002835;28;20495;-74
2023/02/02 03:10:23;;;;;;;16.10;3.77;;;;;;;;;;5003168;28;20474;-74
2023/02/02 03:12:49;;;;;;;36.77;5.73;;;;;;;;;;5004720;28;20454;-74
2023/02/02 03:15:15;;;;;;;22.53;4.50;;;;;;;;;;5002755;28;20432;-74
2023/02/02 03:17:41;;;;;;;20.30;4.27;;;;;;;;;;5008044;28;20431;-74
2023/02/02 03:20:07;;;;;;;20.20;4.30;;;;;;;;;;5002760;28;20430;-74
2023/02/02 03:22:32;;;;;;;17.77;5.10;;;;;;;;;;4998947;28;20444;-74
2023/02/02 03:24:58;;;;;;;17.17;3.77;;;;;;;;;;5006899;28;20189;-74
2023/02/02 03:27:23;;;;;;;19.33;3.90;;;;;;;;;;4982069;28;20715;-74
2023/02/02 03:29:49;;;;;;;25.40;5.17;;;;;;;;;;5007114;28;20250;-74
2023/02/02 03:32:14;;;;;;;26.13;4.90;;;;;;;;;;5002114;28;20206;-74
2023/02/02 03:34:39;;;;;;;22.93;4.67;;;;;;;;;;5011553;28;20188;-74
2023/02/02 03:37:05;;;;;;;21.10;4.20;;;;;;;;;;5017629;28;20200;-74
2023/02/02 03:39:33;;;;;;;24.53;4.50;;;;;;;;;;5015857;28;20201;-74
2023/02/02 03:41:58;;;;;;;27.10;4.70;;;;;;;;;;5017679;28;20187;-74
2023/02/02 03:44:23;;;;;;;20.40;5.03;;;;;;;;;;5017377;28;20436;-74
2023/02/02 03:46:52;;;;;;;16.70;3.90;;;;;;;;;;5018201;28;20263;-74
2023/02/02 03:49:17;;;;;;;23.03;4.93;;;;;;;;;;5014075;28;20223;-74
2023/02/02 03:51:43;;;;;;;22.90;5.97;;;;;;;;;;5017572;28;20440;-74
2023/02/02 03:54:08;;;;;;;28.87;6.30;;;;;;;;;;5013459;28;20300;-74
2023/02/02 03:56:33;;;;;;;30.77;8.40;;;;;;;;;;5016406;28;20173;-74
2023/02/02 03:58:59;;;;;;;25.63;5.10;;;;;;;;;;5012583;28;20212;-74
2023/02/02 04:01:27;;;;;;;23.77;5.53;;;;;;;;;;5017692;28;20267;-74
2023/02/02 04:03:53;;;;;;;25.40;5.03;;;;;;;;;;5019157;28;20219;-74
2023/02/02 04:06:19;;;;;;;26.30;4.93;;;;;;;;;;5013208;28;20434;-75
2023/02/02 04:08:44;;;;;;;23.63;5.27;;;;;;;;;;5012574;28;20185;-74
2023/02/02 04:11:10;;;;;;;25.50;7.40;;;;;;;;;;5009438;28;20469;-74
2023/02/02 04:13:35;;;;;;;27.30;5.60;;;;;;;;;;5011012;28;20202;-74
2023/02/02 04:16:00;;;;;;;24.70;5.00;;;;;;;;;;5012519;28;20240;-74
2023/02/02 04:18:28;;;;;;;30.43;6.07;;;;;;;;;;5013743;28;20172;-74
2023/02/02 04:20:57;;;;;;;26.07;5.20;;;;;;;;;;5015077;28;20180;-74
2023/02/02 04:23:22;;;;;;;28.30;5.50;;;;;;;;;;5004166;28;20544;-74
2023/02/02 04:25:48;;;;;;;30.33;5.13;;;;;;;;;;5007759;28;20515;-74
2023/02/02 04:28:13;;;;;;;27.60;4.90;;;;;;;;;;5011320;28;20239;-74
2023/02/02 04:30:41;;;;;;;20.03;4.97;;;;;;;;;;5013732;28;20467;-74
2023/02/02 04:33:06;;;;;;;20.67;5.60;;;;;;;;;;5012807;28;20195;-74
2023/02/02 04:35:31;;;;;;;24.33;4.70;;;;;;;;;;5012610;28;20924;-74
2023/02/02 04:37:57;;;;;;;25.83;5.07;;;;;;;;;;5011106;28;20773;-74
2023/02/02 04:40:22;;;;;;;21.90;4.93;;;;;;;;;;5013224;28;20554;-74
2023/02/02 04:42:47;;;;;;;23.80;4.60;;;;;;;;;;4994176;28;20752;-74
2023/02/02 04:45:15;;;;;;;32.00;5.40;;;;;;;;;;5012725;28;20188;-74
2023/02/02 04:47:40;;;;;;;36.97;6.13;;;;;;;;;;5013345;28;20807;-74
2023/02/02 04:50:06;;;;;;;21.43;5.30;;;;;;;;;;5014304;28;20459;-73
2023/02/02 04:52:33;;;;;;;30.03;6.03;;;;;;;;;;5010417;28;20176;-73
2023/02/02 04:54:59;;;;;;;26.33;4.90;;;;;;;;;;5013871;28;20280;-73
2023/02/02 04:57:24;;;;;;;22.90;5.30;;;;;;;;;;5010655;28;20530;-74
2023/02/02 04:59:52;;;;;;;32.90;5.70;;;;;;;;;;5007160;28;20219;-74
2023/02/02 05:02:22;;;;;;;23.73;6.20;;;;;;;;;;5015413;28;20208;-74
2023/02/02 05:04:52;;;;;;;22.37;3.90;;;;;;;;;;5014874;28;20467;-74
2023/02/02 05:07:19;;;;;;;23.23;5.07;;;;;;;;;;5015605;28;20501;-74
2023/02/02 05:09:47;;;;;;;19.63;4.43;;;;;;;;;;5012263;28;20463;-74
2023/02/02 05:12:12;;;;;;;19.73;4.30;;;;;;;;;;5014017;28;20515;-74
2023/02/02 05:14:37;;;;;;;25.43;4.53;;;;;;;;;;5019440;28;20507;-74
2023/02/02 05:17:02;;;;;;;24.73;4.07;;;;;;;;;;5021486;28;20178;-74
2023/02/02 05:19:30;;;;;;;15.27;3.40;;;;;;;;;;5011407;28;20268;-74
2023/02/02 05:21:56;;;;;;;20.67;4.03;;;;;;;;;;5016930;28;20685;-74
2023/02/02 05:24:21;;;;;;;24.00;4.77;;;;;;;;;;5003054;28;20593;-74
2023/02/02 05:26:46;;;;;;;27.07;5.30;;;;;;;;;;5008168;28;20251;-74
2023/02/02 05:29:11;;;;;;;25.07;6.30;;;;;;;;;;5009659;28;20188;-73
2023/02/02 05:31:37;;;;;;;28.97;4.80;;;;;;;;;;5011721;28;20216;-74
2023/02/02 05:34:02;;;;;;;28.20;5.33;;;;;;;;;;4965455;23;20226;-71
2023/02/02 05:36:28;;;;;;;35.93;6.47;;;;;;;;;;4961632;28;20190;-71
2023/02/02 05:38:53;;;;;;;29.67;5.63;;;;;;;;;;4939077;28;20194;-71
2023/02/02 05:41:18;;;;;;;28.67;6.17;;;;;;;;;;4956893;28;20301;-71
2023/02/02 05:43:44;;;;;;;29.60;4.97;;;;;;;;;;4964078;28;20210;-72
2023/02/02 05:46:10;;;;;;;23.30;5.33;;;;;;;;;;4961462;28;20214;-72
2023/02/02 05:48:35;;;;;;;26.00;5.33;;;;;;;;;;4947858;28;20320;-72
2023/02/02 05:51:05;;;;;;;29.47;4.80;;;;;;;;;;4963058;28;20465;-72
2023/02/02 05:53:31;;;;;;;34.10;5.67;;;;;;;;;;4959275;28;20201;-73
2023/02/02 05:55:56;;;;;;;24.97;4.37;;;;;;;;;;4960071;28;20918;-73
2023/02/02 05:58:22;;;;;;;22.73;5.57;;;;;;;;;;4965351;28;20182;-72
2023/02/02 06:00:47;;;;;;;25.90;5.17;;;;;;;;;;4966122;28;20647;-72
2023/02/02 06:03:13;;;;;;;32.03;5.50;;;;;;;;;;4965264;28;20206;-72
2023/02/02 06:05:38;;;;;;;30.70;5.60;;;;;;;;;;4955285;28;20553;-72
2023/02/02 06:08:04;;;;;;;25.60;5.50;;;;;;;;;;4956454;28;20205;-73
2023/02/02 06:10:30;;;;;;;33.87;6.07;;;;;;;;;;4964171;28;20190;-72
2023/02/02 06:12:55;;;;;;;21.13;6.27;;;;;;;;;;4962287;28;20829;-73
2023/02/02 06:15:20;;;;;;;29.53;5.00;;;;;;;;;;4962418;28;20426;-73
2023/02/02 06:17:46;;;;;;;17.43;4.27;;;;;;;;;;4958597;28;20282;-72
2023/02/02 06:20:11;;;;;;;25.63;5.33;;;;;;;;;;4958251;28;20631;-72
2023/02/02 06:22:37;;;;;;;22.80;3.73;;;;;;;;;;4963896;28;20199;-72
2023/02/02 06:25:04;;;;;;;19.10;4.13;;;;;;;;;;4968929;28;20233;-72
2023/02/02 06:27:29;;;;;;;26.53;4.10;;;;;;;;;;4945655;28;20397;-71
2023/02/02 06:29:55;;;;;;;21.43;3.73;;;;;;;;;;4967835;28;20479;-71
2023/02/02 06:32:20;;;;;;;19.10;4.70;;;;;;;;;;4968340;28;20258;-71
2023/02/02 06:34:45;;;;;;;17.90;4.20;;;;;;;;;;4961931;28;20186;-71
2023/02/02 06:37:11;;;;;;;19.87;4.70;;;;;;;;;;4968223;28;20190;-71
2023/02/02 06:39:36;;;;;;;20.20;4.23;;;;;;;;;;4969659;28;20190;-71
2023/02/02 06:42:01;;;;;;;20.77;4.77;;;;;;;;;;4953006;28;20229;-71
2023/02/02 06:44:28;;;;;;;22.53;3.80;;;;;;;;;;4971067;28;20687;-71
2023/02/02 06:46:53;;;;;;;23.70;4.70;;;;;;;;;;4951335;28;20557;-71
2023/02/02 06:49:19;;;;;;;26.27;3.97;;;;;;;;;;4968561;28;20414;-71
2023/02/02 06:51:46;;;;;;;26.90;5.63;;;;;;;;;;4953192;28;20236;-71
2023/02/02 06:54:11;;;;;;;19.90;5.40;;;;;;;;;;4969378;28;20195;-71
2023/02/02 06:56:36;;;;;;;17.90;3.13;;;;;;;;;;4968695;28;20915;-71
2023/02/02 06:59:05;;;;;;;15.33;3.30;;;;;;;;;;4969528;28;20635;-72
2023/02/02 07:01:30;;;;;;;18.37;3.83;;;;;;;;;;4968213;28;20558;-71
2023/02/02 07:03:56;;;;;;;19.00;3.90;;;;;;;;;;4952954;28;20534;-72
2023/02/02 07:06:22;;;;;;;19.23;5.03;;;;;;;;;;4970476;28;20210;-71
2023/02/02 07:08:49;;;;;;;28.03;5.70;;;;;;;;;;4953717;28;20671;-71
2023/02/02 07:11:14;;;;;;;17.50;5.73;;;;;;;;;;4939562;28;20837;-72
2023/02/02 07:13:40;;;;;;;20.50;5.60;;;;;;;;;;4951296;28;20534;-71
2023/02/02 07:16:06;;;;;;;24.03;5.60;;;;;;;;;;4968427;28;20234;-71
2023/02/02 07:18:32;;;;;;;18.70;4.30;;;;;;;;;;4937951;28;20768;-71
2023/02/02 07:21:01;;;;;;;17.47;3.53;;;;;;;;;;4950399;28;20448;-71
2023/02/02 07:23:27;;;;;;;11.27;2.73;;;;;;;;;;4952535;28;20218;-71
2023/02/02 07:26:03;;;;;;;18.03;3.47;;;;;;;;;;4968107;28;20426;-71
2023/02/02 07:28:28;;;;;;;12.73;3.57;;;;;;;;;;4966793;28;20425;-71
2023/02/02 07:30:53;;;;;;;19.03;4.60;;;;;;;;;;4969388;28;20545;-71
2023/02/02 07:33:19;;;;;;;16.03;4.47;;;;;;;;;;4968116;28;20210;-71
2023/02/02 07:35:47;;;;;;;14.73;3.60;;;;;;;;;;4953774;28;20194;-71
2023/02/02 07:38:15;;;;;;;12.13;3.20;;;;;;;;;;4967815;28;20790;-71
2023/02/02 07:40:40;;;;;;;12.80;3.33;;;;;;;;;;4953508;28;20426;-71
2023/02/02 07:43:06;;;;;;;14.63;3.07;;;;;;;;;;4961050;28;20438;-71
2023/02/02 07:45:31;;;;;;;12.90;3.33;;;;;;;;;;4969048;28;20187;-71
2023/02/02 07:47:57;;;;;;;11.70;3.40;;;;;;;;;;4968458;28;20182;-71
2023/02/02 07:50:24;;;;;;;17.97;2.83;;;;;;;;;;4968555;28;20284;-70
2023/02/02 07:52:49;;;;;;;14.97;2.93;;;;;;;;;;4952102;28;20461;-71
2023/02/02 07:55:14;;;;;;;16.23;3.43;;;;;;;;;;4958155;28;20441;-71
2023/02/02 07:57:40;;;;;;;15.00;2.97;;;;;;;;;;4950722;28;20190;-71
2023/02/02 08:00:05;;;;;;;19.23;3.50;;;;;;;;;;4943541;28;20281;-72
2023/02/02 08:02:31;;;;;;;17.43;3.03;;;;;;;;;;4961184;28;20203;-72
2023/02/02 08:04:56;;;;;;;18.10;3.47;;;;;;;;;;4965671;28;20731;-72
2023/02/02 08:07:23;;;;;;;15.03;3.23;;;;;;;;;;4963585;28;20624;-72
2023/02/02 08:09:49;;;;;;;18.10;3.43;;;;;;;;;;4949408;28;20206;-72
2023/02/02 08:12:14;;;;;;;20.43;3.20;;;;;;;;;;4947353;28;20439;-72
2023/02/02 08:14:40;;;;;;;15.70;2.80;;;;;;;;;;4964990;28;20214;-72
2023/02/02 08:17:05;;;;;;;13.13;3.13;;;;;;;;;;4963670;28;20182;-72
2023/02/02 08:19:31;;;;;;;18.00;3.13;;;;;;;;;;4967036;28;20175;-72
2023/02/02 08:21:56;;;;;;;15.43;2.97;;;;;;;;;;4964648;28;20178;-70
2023/02/02 08:24:21;;;;;;;12.20;3.00;;;;;;;;;;4964986;28;20334;-72
2023/02/02 08:26:46;;;;;;;22.20;2.77;;;;;;;;;;4959689;28;20175;-72
2023/02/02 08:29:16;;;;;;;13.77;2.73;;;;;;;;;;4963559;28;20182;-72
2023/02/02 08:31:41;;;;;;;16.17;3.00;;;;;;;;;;4942221;28;20215;-72
2023/02/02 08:34:07;;;;;;;13.73;2.80;;;;;;;;;;4963594;28;20453;-72
2023/02/02 08:36:34;;;;;;;16.87;3.30;;;;;;;;;;4948592;28;20182;-72
2023/02/02 08:39:03;;;;;;;22.67;4.40;;;;;;;;;;4947152;28;20273;-72
2023/02/02 08:41:29;;;;;;;11.40;2.90;;;;;;;;;;4957326;28;20564;-72
2023/02/02 08:43:54;;;;;;;14.47;2.73;;;;;;;;;;4955158;28;20552;-72
2023/02/02 08:46:20;;;;;;;16.13;3.40;;;;;;;;;;4963513;28;20317;-72
2023/02/02 08:48:45;;;;;;;16.63;3.50;;;;;;;;;;4957101;28;20719;-72
2023/02/02 08:51:19;;;;;;;15.03;2.90;;;;;;;;;;4964855;28;20213;-70
2023/02/02 08:53:45;;;;;;;19.13;3.37;;;;;;;;;;4963807;28;20198;-70
2023/02/02 08:56:11;;;;;;;15.03;3.40;;;;;;;;;;4962748;28;20437;-70
2023/02/02 08:58:37;;;;;;;11.43;2.87;;;;;;;;;;4960022;28;20202;-70
2023/02/02 09:01:03;;;;;;;19.20;4.80;;;;;;;;;;4965537;28;20469;-70
2023/02/02 09:03:29;;;;;;;16.63;3.30;;;;;;;;;;4966444;28;20345;-71
2023/02/02 09:05:55;;;;;;;14.00;3.20;;;;;;;;;;4966293;28;21043;-70
2023/02/02 09:08:20;;;;;;;13.83;3.10;;;;;;;;;;4964610;28;20635;-71
2023/02/02 09:10:45;;;;;;;20.27;3.20;;;;;;;;;;4947972;28;20374;-70
2023/02/02 09:13:11;;;;;;;15.70;4.30;;;;;;;;;;4957705;28;20210;-70
2023/02/02 09:15:37;;;;;;;18.77;3.53;;;;;;;;;;4962170;28;20289;-70
2023/02/02 09:18:03;;;;;;;18.77;3.50;;;;;;;;;;4955719;28;20265;-71
2023/02/02 09:20:28;;;;;;;12.87;3.53;;;;;;;;;;4965467;28;20524;-70
2023/02/02 09:22:54;;;;;;;20.40;3.00;;;;;;;;;;4962296;28;20206;-71
2023/02/02 09:25:20;;;;;;;17.77;2.70;;;;;;;;;;4948164;28;20905;-71
2023/02/02 09:27:45;;;;;;;8.80;2.67;;;;;;;;;;4941551;28;20448;-70
2023/02/02 09:30:11;;;;;;;15.67;3.27;;;;;;;;;;4963459;28;20556;-73
2023/02/02 09:32:37;;;;;;;11.57;2.73;;;;;;;;;;4964153;28;20289;-71
2023/02/02 09:35:02;;;;;;;16.60;4.30;;;;;;;;;;4964159;28;20218;-72
2023/02/02 09:37:27;;;;;;;15.03;3.00;;;;;;;;;;4962235;28;20628;-70
2023/02/02 09:39:52;;;;;;;13.63;2.90;;;;;;;;;;4963930;28;20189;-71
2023/02/02 09:42:21;;;;;;;13.40;3.20;;;;;;;;;;4960677;28;20210;-70
2023/02/02 09:45:00;;;;;;;8.13;2.80;;;;;;;;;;4960422;28;20877;-70
2023/02/02 09:47:33;;;;;;;11.57;2.57;;;;;;;;;;4966748;28;21032;-71
2023/02/02 09:50:14;;;;;;;10.23;2.37;;;;;;;;;;4967412;28;20465;-71
2023/02/02 09:52:41;;;;;;;11.47;2.83;;;;;;;;;;4948636;28;20815;-70
2023/02/02 09:55:21;;;;;;;11.57;2.50;;;;;;;;;;4961375;28;20951;-70
2023/02/02 09:57:49;;;;;;;19.10;4.13;;;;;;;;;;4951675;28;20434;-71
2023/02/02 10:00:22;;;;;;;9.07;2.20;;;;;;;;;;4963767;28;20440;-70
2023/02/02 10:02:49;;;;;;;9.07;2.60;;;;;;;;;;4955052;28;20467;-70
2023/02/02 10:05:17;;;;;;;9.00;2.27;;;;;;;;;;4956438;28;20438;-70
2023/02/02 10:07:44;;;;;;;10.80;2.90;;;;;;;;;;4948505;28;20851;-71
2023/02/02 10:10:27;;;;;;;15.93;2.63;;;;;;;;;;4960388;28;20837;-71
2023/02/02 10:12:54;;;;;;;13.37;2.30;;;;;;;;;;4964450;28;20454;-71
2023/02/02 10:15:33;;;;;;;13.00;3.30;;;;;;;;;;4963464;28;20929;-71
2023/02/02 10:18:14;;;;;;;11.93;2.40;;;;;;;;;;4966256;28;20445;-70
2023/02/02 10:20:43;;;;;;;13.07;2.47;;;;;;;;;;4966956;28;20445;-71
2023/02/02 10:23:23;;;;;;;8.37;2.70;;;;;;;;;;4965619;28;20961;-71
2023/02/02 10:26:09;;;;;;;8.33;2.20;;;;;;;;;;4949130;28;20490;-71
2023/02/02 10:28:52;;;;;;;16.90;3.43;;;;;;;;;;4948655;28;20807;-70
2023/02/02 10:31:35;;;;;;;10.60;2.50;;;;;;;;;;4950579;28;20817;-71
2023/02/02 10:34:07;;;;;;;10.77;2.50;;;;;;;;;;4966530;28;20579;-71
2023/02/02 10:36:46;;;;;;;8.43;2.43;;;;;;;;;;4968884;28;20425;-71
2023/02/02 10:39:20;;;;;;;14.67;2.53;;;;;;;;;;4949706;28;20433;-71
2023/02/02 10:41:46;;;;;;;17.17;3.40;;;;;;;;;;4964947;28;20484;-71
2023/02/02 10:44:27;;;;;;;14.10;2.90;;;;;;;;;;4966997;28;20497;-71
2023/02/02 10:47:03;;;;;;;17.80;2.80;;;;;;;;;;4965782;28;20218;-71
2023/02/02 10:49:33;;;;;;;13.63;2.53;;;;;;;;;;4941368;28;20492;-71
2023/02/02 10:52:05;;;;;;;13.10;3.47;;;;;;;;;;4967527;28;20447;-70
2023/02/02 10:54:38;;;;;;;10.80;2.67;;;;;;;;;;4958131;28;20485;-70
2023/02/02 10:57:06;;;;;;;9.20;2.63;;;;;;;;;;4965324;28;20426;-72
2023/02/02 10:59:34;;;;;;;13.03;2.37;;;;;;;;;;4964588;28;20939;-72
2023/02/02 11:02:00;;;;;;;13.33;2.57;;;;;;;;;;4962404;28;20429;-71
2023/02/02 11:07:14;;;;;;;7.40;2.00;;;;;;;;;;4962248;28;20190;-71
2023/02/02 11:09:41;;;;;;;8.10;2.03;;;;;;;;;;4954661;28;20946;-71
2023/02/02 11:12:18;;;;;;;11.37;2.40;;;;;;;;;;4964404;28;20422;-70
2023/02/02 11:14:51;;;;;;;9.13;2.10;;;;;;;;;;4949781;28;20822;-70
2023/02/02 11:17:21;;;;;;;4.33;1.83;;;;;;;;;;4946574;28;20437;-71
2023/02/02 11:19:48;;;;;;;14.93;2.97;;;;;;;;;;4948843;28;20433;-72
2023/02/02 11:22:32;;;;;;;9.50;1.70;;;;;;;;;;4946344;28;20490;-73
2023/02/02 11:25:03;;;;;;;7.67;2.30;;;;;;;;;;4961471;28;20914;-73
2023/02/02 11:27:32;;;;;;;13.73;2.60;;;;;;;;;;4964992;28;20959;-74
2023/02/02 11:29:58;;;;;;;15.43;2.60;;;;;;;;;;4957146;28;20465;-71
2023/02/02 11:32:34;;;;;;;9.23;2.00;;;;;;;;;;4958061;28;20958;-72
2023/02/02 11:35:02;;;;;;;13.27;2.10;;;;;;;;;;4962203;28;20340;-71
2023/02/02 11:37:28;;;;;;;15.93;2.57;;;;;;;;;;4960791;28;20442;-71
2023/02/02 11:39:53;;;;;;;11.13;3.10;;;;;;;;;;4958842;28;20433;-72
2023/02/02 11:42:20;;;;;;;11.87;2.77;;;;;;;;;;4981549;23;20243;-72
2023/02/02 11:44:47;;;;;;;10.80;2.07;;;;;;;;;;5004048;28;20555;-74
2023/02/02 11:47:18;;;;;;;9.97;2.63;;;;;;;;;;5023013;28;20437;-74
2023/02/02 11:49:43;;;;;;;22.30;3.40;;;;;;;;;;5022783;28;20427;-74
2023/02/02 11:52:15;;;;;;;12.17;2.27;;;;;;;;;;5024465;28;21011;-75
2023/02/02 11:54:44;;;;;;;14.17;2.47;;;;;;;;;;5025652;28;20180;-75
2023/02/02 11:57:15;;;;;;;12.47;2.80;;;;;;;;;;5009048;28;20430;-75
2023/02/02 11:59:41;;;;;;;11.10;2.10;;;;;;;;;;5023218;28;20431;-74
2023/02/02 12:02:19;;;;;;;17.40;3.03;;;;;;;;;;5002961;28;20947;-74
2023/02/02 12:04:45;;;;;;;9.00;2.20;;;;;;;;;;5024917;28;20493;-74
2023/02/02 12:07:27;;;;;;;11.90;2.20;;;;;;;;;;5023729;28;20435;-74
2023/02/02 12:09:55;;;;;;;8.73;2.07;;;;;;;;;;5020243;28;21046;-74
2023/02/02 12:12:29;;;;;;;8.53;2.87;;;;;;;;;;5023226;28;20534;-74
2023/02/02 12:14:55;;;;;;;9.30;2.40;;;;;;;;;;5025905;28;20514;-74
2023/02/02 12:17:20;;;;;;;9.73;3.00;;;;;;;;;;5022737;28;20560;-74
2023/02/02 12:19:45;;;;;;;7.17;1.70;;;;;;;;;;5023082;28;20191;-74
2023/02/02 12:22:29;;;;;;;9.30;2.07;;;;;;;;;;5021998;28;20583;-74
2023/02/02 12:24:55;;;;;;;7.50;1.80;;;;;;;;;;5022724;28;20211;-74
2023/02/02 12:27:20;;;;;;;7.10;1.70;;;;;;;;;;5024377;28;20876;-74
2023/02/02 12:29:51;;;;;;;6.97;1.80;;;;;;;;;;5015925;28;20177;-74
2023/02/02 12:32:22;;;;;;;6.47;2.13;;;;;;;;;;5020069;28;20196;-75
2023/02/02 12:34:57;;;;;;;7.10;2.10;;;;;;;;;;5023102;28;20415;-74
2023/02/02 12:38:01;;;;;;;7.10;2.00;;;;;;;;;;5018712;28;20438;-74
2023/02/02 12:40:32;;;;;;;12.33;1.90;;;;;;;;;;4922837;29;20550;-74
2023/02/02 12:42:59;;;;;;;10.90;2.73;;;;;;;;;;4922898;29;20529;-74
2023/02/02 12:45:33;;;;;;;3.90;1.67;;;;;;;;;;4971557;28;20443;-74
2023/02/02 12:48:10;;;;;;;5.50;1.50;;;;;;;;;;5023223;28;20522;-74
2023/02/02 12:50:48;;;;;;;6.93;1.57;;;;;;;;;;5023421;28;20485;-74
2023/02/02 12:53:16;;;;;;;5.87;1.67;;;;;;;;;;5024244;28;20445;-74
2023/02/02 12:55:47;;;;;;;6.73;1.50;;;;;;;;;;5024716;28;20427;-75
2023/02/02 12:58:12;;;;;;;7.50;2.23;;;;;;;;;;5021698;28;20540;-75
2023/02/02 13:01:13;;;;;;;5.53;1.40;;;;;;;;;;5025316;28;21007;-75
2023/02/02 13:03:47;;;;;;;4.20;1.17;;;;;;;;;;4947614;29;20226;-75
2023/02/02 13:06:13;;;;;;;4.30;1.30;;;;;;;;;;4994270;28;20800;-75
2023/02/02 13:08:38;;;;;;;5.00;1.10;;;;;;;;;;5024381;28;20466;-75
2023/02/02 13:11:28;;;;;;;8.50;1.40;;;;;;;;;;5023072;28;20212;-75
2023/02/02 13:13:56;;;;;;;5.33;1.97;;;;;;;;;;5020893;28;20661;-75
2023/02/02 13:16:22;;;;;;;8.90;1.60;;;;;;;;;;5023319;28;20426;-75
2023/02/02 13:18:52;;;;;;;4.70;1.47;;;;;;;;;;5023739;28;20435;-75
2023/02/02 13:21:19;;;;;;;7.73;1.97;;;;;;;;;;5025830;28;20192;-75
2023/02/02 13:23:49;;;;;;;3.30;1.23;;;;;;;;;;5006006;28;20994;-75
2023/02/02 13:26:17;;;;;;;4.00;1.43;;;;;;;;;;5023990;28;20454;-75
2023/02/02 13:28:55;;;;;;;4.40;1.40;;;;;;;;;;5028535;28;21061;-75
2023/02/02 13:31:39;;;;;;;4.00;1.37;;;;;;;;;;5028780;28;20470;-75
2023/02/02 13:34:21;;;;;;;5.83;1.87;;;;;;;;;;5029040;28;20445;-75
2023/02/02 13:36:51;;;;;;;8.67;1.93;;;;;;;;;;5028648;28;20454;-75
2023/02/02 13:39:19;;;;;;;4.70;1.70;;;;;;;;;;5028757;28;20445;-75
2023/02/02 13:41:45;;;;;;;5.67;1.93;;;;;;;;;;5027211;28;20437;-75
2023/02/02 13:44:14;;;;;;;7.10;2.30;;;;;;;;;;5026109;28;20442;-75
2023/02/02 13:46:39;;;;;;;6.60;1.80;;;;;;;;;;5027793;28;20431;-75
2023/02/02 13:49:09;;;;;;;3.97;1.33;;;;;;;;;;5027877;28;20519;-76
2023/02/02 13:51:53;;;;;;;6.30;1.33;;;;;;;;;;5019749;28;20658;-75
2023/02/02 13:54:21;;;;;;;4.40;2.00;;;;;;;;;;5026207;28;20439;-75
2023/02/02 13:56:56;;;;;;;5.53;1.90;;;;;;;;;;5029327;28;20526;-75
2023/02/02 13:59:39;;;;;;;8.10;1.60;;;;;;;;;;5023852;28;20431;-75
2023/02/02 14:02:13;;;;;;;8.00;2.50;;;;;;;;;;5027923;28;20509;-74
2023/02/02 14:04:38;;;;;;;8.00;2.70;;;;;;;;;;5022967;28;20426;-75
2023/02/02 14:07:05;;;;;;;12.73;4.20;;;;;;;;;;5020724;28;20439;-74
2023/02/02 14:09:34;;;;;;;8.33;3.23;;;;;;;;;;5022741;28;20196;-75
2023/02/02 14:12:07;;;;;;;10.43;2.90;;;;;;;;;;5025029;28;20549;-74
2023/02/02 14:14:34;;;;;;;10.37;3.40;;;;;;;;;;5027646;28;20985;-75
2023/02/02 14:16:59;;;;;;;8.90;2.93;;;;;;;;;;5024013;28;20430;-75
2023/02/02 14:19:28;;;;;;;6.07;2.17;;;;;;;;;;5020621;28;20434;-75
2023/02/02 14:21:57;;;;;;;7.07;1.87;;;;;;;;;;5002464;28;20278;-75
2023/02/02 14:24:26;;;;;;;5.77;1.67;;;;;;;;;;5021492;28;20443;-75
2023/02/02 14:26:51;;;;;;;7.17;1.70;;;;;;;;;;5025554;28;20438;-75
2023/02/02 14:29:30;;;;;;;9.20;1.80;;;;;;;;;;5027075;28;20434;-75
2023/02/02 14:31:58;;;;;;;5.60;1.77;;;;;;;;;;5021392;28;20338;-75
2023/02/02 14:34:39;;;;;;;6.07;2.00;;;;;;;;;;5026135;28;20528;-75
2023/02/02 14:37:25;;;;;;;3.93;1.30;;;;;;;;;;5025798;28;20734;-75
2023/02/02 14:39:50;;;;;;;6.50;1.40;;;;;;;;;;5011754;28;20437;-75
2023/02/02 14:45:24;;;;;;;6.40;1.67;;;;;;;;;;5025129;28;20187;-75
2023/02/02 14:47:54;;;;;;;3.97;1.43;;;;;;;;;;5025486;28;20438;-75
2023/02/02 14:50:25;;;;;;;6.83;1.60;;;;;;;;;;5024860;28;20467;-75
2023/02/02 14:52:55;;;;;;;5.50;1.70;;;;;;;;;;5024974;28;20447;-75
2023/02/02 14:55:21;;;;;;;4.10;1.70;;;;;;;;;;5012773;28;21441;-75
2023/02/02 14:57:57;;;;;;;4.93;1.33;;;;;;;;;;5025660;28;20445;-75